Time;durP1;ratioP1;P1;durP2;ratioP2;P2;SDS_P1;SDS_P2;PMS_P1;PMS_P2;Temp;Humidity;BMP_temperature;BMP_pressure;BME280_temperature;BME280_humidity;BME280_pressure;Samples;Min_cycle;Max_cycle;Signal;HPM_P1;HPM_P2
2021/04/19 04:02:45;;;;;;;43.17;23.65;;;7.40;99.90;;;;;;4933164;29;20229;-74
2021/04/19 04:05:13;;;;;;;41.33;23.20;;;7.40;99.90;;;;;;4936264;29;20213;-75
2021/04/19 04:07:40;;;;;;;43.25;24.73;;;7.50;99.90;;;;;;4935917;29;20266;-74
2021/04/19 04:10:09;;;;;;;44.42;24.88;;;7.50;99.90;;;;;;4935769;29;20288;-74
2021/04/19 04:12:36;;;;;;;36.83;22.70;;;7.50;99.90;;;;;;4918106;29;20269;-74
2021/04/19 04:15:04;;;;;;;39.78;22.75;;;7.50;99.90;;;;;;4916638;29;20860;-74
2021/04/19 04:17:31;;;;;;;49.30;23.50;;;7.50;99.90;;;;;;4898087;29;20215;-74
2021/04/19 04:19:58;;;;;;;36.47;22.83;;;7.40;99.90;;;;;;4898940;29;20639;-74
2021/04/19 04:22:24;;;;;;;37.15;23.52;;;7.30;99.90;;;;;;4915024;29;20241;-74
2021/04/19 04:24:52;;;;;;;37.83;21.48;;;7.30;99.90;;;;;;4915564;29;20237;-72
2021/04/19 04:27:19;;;;;;;35.35;22.17;;;7.30;99.90;;;;;;4915331;29;20210;-74
2021/04/19 04:29:45;;;;;;;36.67;24.35;;;7.30;99.90;;;;;;4915892;29;20218;-75
2021/04/19 04:32:11;;;;;;;39.60;21.63;;;7.30;99.90;;;;;;4916394;29;20309;-74
2021/04/19 04:34:39;;;;;;;37.78;23.00;;;7.30;99.90;;;;;;4917570;29;20594;-74
2021/04/19 04:37:06;;;;;;;44.55;22.85;;;7.30;99.90;;;;;;4916126;29;20210;-74
2021/04/19 04:39:33;;;;;;;37.53;22.25;;;7.30;99.90;;;;;;4914207;29;20214;-74
2021/04/19 04:41:59;;;;;;;56.75;24.30;;;7.30;99.90;;;;;;4911566;29;20230;-75
2021/04/19 04:44:29;;;;;;;40.13;23.67;;;7.30;99.90;;;;;;4915456;29;20223;-74
2021/04/19 04:47:05;;;;;;;69.75;23.45;;;7.20;99.90;;;;;;4915641;29;20289;-74
2021/04/19 04:49:38;;;;;;;34.75;21.42;;;7.20;99.90;;;;;;4915323;29;20245;-75
2021/04/19 04:52:07;;;;;;;46.55;21.23;;;7.20;99.90;;;;;;4914813;29;20261;-74
2021/04/19 04:54:37;;;;;;;46.75;21.55;;;7.20;99.90;;;;;;4915032;29;20218;-74
2021/04/19 04:57:06;;;;;;;41.95;23.52;;;7.20;99.90;;;;;;4914901;29;20282;-74
2021/04/19 04:59:33;;;;;;;40.63;22.90;;;7.10;99.90;;;;;;4914516;29;20218;-73
2021/04/19 05:01:59;;;;;;;37.28;21.70;;;7.10;99.90;;;;;;4914696;29;20343;-73
2021/04/19 05:04:28;;;;;;;38.35;21.48;;;7.10;99.90;;;;;;4915038;29;20308;-72
2021/04/19 05:06:55;;;;;;;42.33;21.60;;;7.10;99.90;;;;;;4913412;29;20683;-72
2021/04/19 05:09:21;;;;;;;38.28;20.95;;;7.20;99.90;;;;;;4915154;29;20219;-71
2021/04/19 05:11:48;;;;;;;30.58;20.95;;;7.10;99.90;;;;;;4913967;29;20275;-71
2021/04/19 05:14:14;;;;;;;37.97;22.85;;;7.10;99.90;;;;;;4914991;29;20207;-71
2021/04/19 05:16:41;;;;;;;41.28;20.80;;;7.10;99.90;;;;;;4914343;29;20216;-71
2021/04/19 05:19:07;;;;;;;42.75;23.15;;;7.10;99.90;;;;;;4915240;29;20274;-71
2021/04/19 05:21:35;;;;;;;42.78;22.42;;;7.10;99.90;;;;;;4914034;29;20298;-72
2021/04/19 05:24:01;;;;;;;40.63;22.70;;;7.10;99.90;;;;;;4914675;29;20225;-72
2021/04/19 05:26:28;;;;;;;38.60;20.75;;;7.10;99.90;;;;;;4914162;29;20269;-72
2021/04/19 05:28:55;;;;;;;54.33;22.25;;;7.20;99.90;;;;;;4914980;29;20228;-72
2021/04/19 05:31:21;;;;;;;33.28;20.88;;;7.20;99.90;;;;;;4914368;29;20242;-72
2021/04/19 05:33:48;;;;;;;51.20;24.08;;;7.20;99.90;;;;;;4914761;29;20198;-72
2021/04/19 05:36:16;;;;;;;43.17;23.55;;;7.20;99.90;;;;;;4913763;29;20210;-73
2021/04/19 05:38:44;;;;;;;49.53;24.40;;;7.20;99.90;;;;;;4914123;29;20597;-71
2021/04/19 05:41:11;;;;;;;43.28;22.35;;;7.20;99.90;;;;;;4914359;29;20242;-74
2021/04/19 05:43:41;;;;;;;33.05;17.98;;;7.20;99.90;;;;;;4914825;29;20330;-74
2021/04/19 05:46:07;;;;;;;41.53;22.65;;;7.30;99.90;;;;;;4914628;29;20214;-74
2021/04/19 05:48:33;;;;;;;52.60;22.52;;;7.30;99.90;;;;;;4914919;29;20535;-73
2021/04/19 05:51:04;;;;;;;56.47;23.45;;;7.30;99.90;;;;;;4914173;29;20245;-72
2021/04/19 05:53:30;;;;;;;48.35;20.92;;;7.30;99.90;;;;;;4914633;29;20249;-72
2021/04/19 05:55:58;;;;;;;40.30;22.70;;;7.30;99.90;;;;;;4913488;29;20645;-70
2021/04/19 05:58:29;;;;;;;43.95;20.02;;;7.30;99.90;;;;;;4915015;29;20233;-72
2021/04/19 06:01:04;;;;;;;35.63;22.02;;;7.30;99.90;;;;;;4911374;29;20235;-72
2021/04/19 06:03:41;;;;;;;41.03;22.65;;;7.30;99.90;;;;;;4915000;29;20260;-73
2021/04/19 06:06:15;;;;;;;39.95;22.02;;;7.30;99.90;;;;;;4906166;29;20210;-73
2021/04/19 06:08:43;;;;;;;48.22;21.70;;;7.30;99.90;;;;;;4906911;29;20276;-72
2021/04/19 06:11:17;;;;;;;34.13;21.35;;;7.30;99.90;;;;;;4913744;29;20230;-72
2021/04/19 06:13:46;;;;;;;38.88;20.98;;;7.30;99.90;;;;;;4914071;29;20207;-71
2021/04/19 06:16:14;;;;;;;35.33;19.83;;;7.30;99.90;;;;;;4895859;29;20238;-70
2021/04/19 06:18:44;;;;;;;45.67;21.63;;;7.30;99.90;;;;;;4895879;29;20215;-70
2021/04/19 06:21:12;;;;;;;51.85;20.60;;;7.30;99.90;;;;;;4913252;29;20223;-70
2021/04/19 06:23:40;;;;;;;65.53;20.33;;;7.30;99.90;;;;;;4914266;29;20235;-70
2021/04/19 06:26:07;;;;;;;44.15;19.50;;;7.20;99.90;;;;;;4912861;29;20211;-70
2021/04/19 06:28:33;;;;;;;32.78;18.25;;;7.20;99.90;;;;;;4914536;29;20217;-69
2021/04/19 06:31:00;;;;;;;30.63;17.70;;;7.20;99.90;;;;;;4913591;29;20235;-71
2021/04/19 06:33:30;;;;;;;38.15;20.75;;;7.20;99.90;;;;;;4914173;29;20207;-70
2021/04/19 06:35:56;;;;;;;28.77;19.20;;;7.20;99.90;;;;;;4913669;29;20302;-72
2021/04/19 06:38:22;;;;;;;47.10;20.90;;;7.30;99.90;;;;;;4913809;29;20207;-73
2021/04/19 06:40:48;;;;;;;38.25;20.02;;;7.30;99.90;;;;;;4900852;29;20255;-73
2021/04/19 06:43:15;;;;;;;33.28;18.05;;;7.20;99.90;;;;;;4914427;29;20238;-72
2021/04/19 06:45:42;;;;;;;31.60;19.33;;;7.20;99.90;;;;;;4913458;29;20285;-73
2021/04/19 06:48:10;;;;;;;30.92;20.23;;;7.20;99.90;;;;;;4914318;29;20640;-72
2021/04/19 06:50:38;;;;;;;36.38;18.35;;;7.20;99.90;;;;;;4915487;29;20222;-73
2021/04/19 06:53:05;;;;;;;34.65;21.73;;;7.30;99.90;;;;;;4914331;29;20214;-72
2021/04/19 06:55:33;;;;;;;31.38;18.40;;;7.40;99.90;;;;;;4916860;29;20215;-73
2021/04/19 06:58:00;;;;;;;28.52;19.42;;;7.50;99.90;;;;;;4917906;29;20210;-72
2021/04/19 07:00:28;;;;;;;58.20;19.50;;;7.60;99.90;;;;;;4916781;29;20227;-72
2021/04/19 07:02:56;;;;;;;37.13;19.63;;;7.50;99.90;;;;;;4917505;29;20257;-72
2021/04/19 07:05:24;;;;;;;33.28;19.05;;;7.50;99.90;;;;;;4916218;29;20234;-72
2021/04/19 07:08:01;;;;;;;38.60;21.63;;;7.60;99.90;;;;;;4916778;29;20577;-73
2021/04/19 07:10:28;;;;;;;26.45;17.67;;;7.70;99.90;;;;;;4916984;29;20265;-73
2021/04/19 07:12:56;;;;;;;24.40;16.83;;;7.80;99.90;;;;;;4917401;29;20581;-73
2021/04/19 07:15:24;;;;;;;30.60;17.40;;;7.80;99.90;;;;;;4917107;29;20199;-72
2021/04/19 07:17:50;;;;;;;28.92;19.23;;;7.80;99.90;;;;;;4916901;29;20207;-73
2021/04/19 07:20:17;;;;;;;26.48;17.48;;;7.80;99.90;;;;;;4916037;29;20210;-71
2021/04/19 07:22:44;;;;;;;30.70;16.55;;;7.80;99.90;;;;;;4909535;29;20726;-70
2021/04/19 07:25:11;;;;;;;25.08;17.33;;;7.70;99.90;;;;;;4916772;29;20202;-71
2021/04/19 07:27:39;;;;;;;29.52;16.80;;;7.80;99.90;;;;;;4917435;29;20222;-71
2021/04/19 07:30:08;;;;;;;27.58;17.92;;;8.00;99.90;;;;;;4914016;29;20205;-71
2021/04/19 07:32:36;;;;;;;26.60;17.45;;;8.00;99.90;;;;;;4917285;29;20407;-71
2021/04/19 07:35:05;;;;;;;29.08;17.00;;;8.00;99.90;;;;;;4916713;29;20214;-70
2021/04/19 07:37:31;;;;;;;23.65;15.88;;;8.00;99.90;;;;;;4916564;29;20199;-70
2021/04/19 07:39:57;;;;;;;20.45;16.33;;;8.00;99.90;;;;;;4915509;29;20270;-71
2021/04/19 07:42:24;;;;;;;27.27;15.57;;;7.90;99.90;;;;;;4916184;29;20278;-70
2021/04/19 07:44:52;;;;;;;21.65;16.02;;;7.90;99.90;;;;;;4917211;29;20210;-73
2021/04/19 07:47:31;;;;;;;23.55;15.20;;;8.00;99.90;;;;;;4910133;29;20222;-71
2021/04/19 07:50:06;;;;;;;25.83;15.60;;;8.20;99.90;;;;;;4914362;29;20217;-71
2021/04/19 07:52:35;;;;;;;23.92;14.77;;;8.30;99.90;;;;;;4906153;29;20277;-71
2021/04/19 07:55:07;;;;;;;16.60;14.63;;;8.30;99.90;;;;;;4915537;29;20202;-71
2021/04/19 07:57:34;;;;;;;18.60;14.73;;;8.30;99.90;;;;;;4914901;29;20217;-71
2021/04/19 08:00:00;;;;;;;34.05;15.48;;;8.20;99.90;;;;;;4914637;29;20206;-71
2021/04/19 08:02:26;;;;;;;18.65;16.13;;;8.10;99.90;;;;;;4907975;29;20230;-74
2021/04/19 08:04:54;;;;;;;21.40;16.10;;;8.10;99.90;;;;;;4916604;29;20218;-71
2021/04/19 08:07:22;;;;;;;20.20;16.95;;;8.20;99.90;;;;;;4912656;29;20214;-71
2021/04/19 08:09:55;;;;;;;18.27;15.32;;;8.40;99.90;;;;;;4906032;29;20202;-71
2021/04/19 08:12:32;;;;;;;21.33;15.18;;;8.40;99.90;;;;;;4910204;29;20223;-71
2021/04/19 08:15:01;;;;;;;18.30;15.10;;;8.30;99.90;;;;;;4910381;29;20206;-70
2021/04/19 08:17:29;;;;;;;19.88;14.38;;;8.20;99.90;;;;;;4913078;29;20252;-71
2021/04/19 08:19:56;;;;;;;22.77;15.98;;;8.20;99.90;;;;;;4915186;29;20217;-70
2021/04/19 08:22:26;;;;;;;20.10;15.25;;;8.10;99.90;;;;;;4909992;29;20285;-70
2021/04/19 08:25:08;;;;;;;22.60;15.20;;;8.30;99.90;;;;;;4915114;29;20270;-70
2021/04/19 08:27:35;;;;;;;23.50;15.18;;;8.30;99.90;;;;;;4915179;29;20697;-70
2021/04/19 08:30:02;;;;;;;24.25;16.63;;;8.40;99.90;;;;;;4915130;29;20199;-71
2021/04/19 08:32:31;;;;;;;28.70;16.98;;;8.40;99.90;;;;;;4914665;29;20298;-72
2021/04/19 08:34:58;;;;;;;19.95;15.90;;;8.30;99.90;;;;;;4900831;29;20210;-71
2021/04/19 08:37:28;;;;;;;21.17;15.32;;;8.30;99.90;;;;;;4912786;29;20301;-72
2021/04/19 08:39:56;;;;;;;21.95;16.45;;;8.40;99.90;;;;;;4913785;29;20206;-70
2021/04/19 08:42:23;;;;;;;19.08;14.23;;;8.40;99.90;;;;;;4914950;29;20222;-69
2021/04/19 08:44:52;;;;;;;20.35;15.50;;;8.40;99.90;;;;;;4904314;29;20218;-70
2021/04/19 08:47:20;;;;;;;18.73;15.77;;;8.40;99.90;;;;;;4915229;29;20210;-69
2021/04/19 08:49:47;;;;;;;18.60;15.20;;;8.60;99.90;;;;;;4915057;29;20261;-70
2021/04/19 08:52:14;;;;;;;19.55;16.30;;;8.90;99.90;;;;;;4913756;29;20727;-70
2021/04/19 08:54:41;;;;;;;19.65;15.38;;;9.00;99.90;;;;;;4915198;29;20882;-70
2021/04/19 08:57:07;;;;;;;18.23;15.10;;;9.10;99.90;;;;;;4914335;29;20643;-70
2021/04/19 08:59:34;;;;;;;18.17;14.63;;;9.20;99.90;;;;;;4914472;29;20219;-71
2021/04/19 09:02:03;;;;;;;19.25;15.23;;;9.20;99.90;;;;;;4896519;29;20231;-70
2021/04/19 09:04:30;;;;;;;17.40;15.15;;;9.20;99.90;;;;;;4901630;29;20219;-72
2021/04/19 09:06:58;;;;;;;15.95;14.10;;;9.40;99.90;;;;;;4915252;29;20221;-72
2021/04/19 09:09:36;;;;;;;19.25;14.80;;;9.50;99.90;;;;;;4910586;29;20225;-72
2021/04/19 09:12:21;;;;;;;18.35;14.43;;;9.70;99.90;;;;;;4905935;29;20226;-71
2021/04/19 09:14:48;;;;;;;17.80;15.15;;;9.70;99.90;;;;;;4896218;29;20217;-72
2021/04/19 09:17:24;;;;;;;16.27;14.25;;;9.70;99.90;;;;;;4896573;29;20211;-72
2021/04/19 09:19:56;;;;;;;14.88;13.38;;;9.80;99.90;;;;;;4896149;29;20210;-72
2021/04/19 09:22:23;;;;;;;15.63;13.80;;;9.70;99.90;;;;;;4895725;29;20233;-72
2021/04/19 09:25:00;;;;;;;17.10;15.25;;;9.70;99.90;;;;;;4904549;29;20202;-72
2021/04/19 09:27:43;;;;;;;19.25;16.23;;;9.60;99.90;;;;;;4904687;29;20664;-72
2021/04/19 09:30:30;;;;;;;18.52;15.75;;;9.70;99.90;;;;;;4902946;29;20214;-70
2021/04/19 09:33:18;;;;;;;14.20;12.80;;;9.70;99.90;;;;;;4914809;29;20760;-72
2021/04/19 09:35:48;;;;;;;16.25;14.43;;;9.70;99.90;;;;;;4914207;29;20221;-71
2021/04/19 09:38:16;;;;;;;16.38;14.68;;;9.60;99.90;;;;;;4915830;29;20210;-71
2021/04/19 09:40:47;;;;;;;15.00;13.40;;;9.70;99.90;;;;;;4914562;29;20238;-71
2021/04/19 09:43:29;;;;;;;18.63;16.05;;;10.00;99.90;;;;;;4914847;29;20264;-72
2021/04/19 09:46:00;;;;;;;15.70;14.07;;;10.00;99.90;;;;;;4914661;29;20312;-71
2021/04/19 09:48:39;;;;;;;17.02;14.30;;;9.80;99.90;;;;;;4914606;29;20272;-71
2021/04/19 09:51:12;;;;;;;16.70;14.90;;;9.90;99.90;;;;;;4914541;29;20241;-72
2021/04/19 09:53:39;;;;;;;16.90;14.68;;;9.80;99.90;;;;;;4899177;29;20609;-71
2021/04/19 09:56:06;;;;;;;16.70;14.15;;;10.00;99.90;;;;;;4902546;29;20228;-72
2021/04/19 09:58:32;;;;;;;18.13;14.93;;;10.20;99.90;;;;;;4906959;29;20206;-72
2021/04/19 10:01:00;;;;;;;16.88;14.55;;;10.50;99.90;;;;;;4914152;29;20238;-73
2021/04/19 10:03:27;;;;;;;15.80;14.20;;;10.90;99.90;;;;;;4914150;29;20235;-71
2021/04/19 10:05:55;;;;;;;15.18;13.57;;;11.00;99.90;;;;;;4912727;29;20211;-70
2021/04/19 10:08:23;;;;;;;15.23;13.63;;;10.80;99.90;;;;;;4914496;29;20206;-71
2021/04/19 10:10:51;;;;;;;16.95;15.25;;;10.70;99.90;;;;;;4908423;29;20679;-72
2021/04/19 10:13:26;;;;;;;17.52;15.77;;;10.90;99.90;;;;;;4913847;29;20215;-70
2021/04/19 10:16:04;;;;;;;14.82;13.43;;;11.10;99.90;;;;;;4912628;29;20206;-70
2021/04/19 10:18:31;;;;;;;15.30;13.30;;;11.10;99.90;;;;;;4903001;29;20225;-70
2021/04/19 10:20:58;;;;;;;15.48;13.88;;;11.30;99.90;;;;;;4895476;29;20595;-71
2021/04/19 10:23:33;;;;;;;16.23;14.07;;;11.50;99.90;;;;;;4911364;29;20230;-72
2021/04/19 10:26:00;;;;;;;15.30;13.80;;;11.60;99.90;;;;;;4918123;29;20233;-72
2021/04/19 10:28:28;;;;;;;16.10;14.48;;;11.50;99.90;;;;;;4917302;29;20210;-72
2021/04/19 10:31:12;;;;;;;15.30;13.80;;;11.60;99.90;;;;;;4912352;29;20708;-71
2021/04/19 10:33:39;;;;;;;16.27;13.73;;;11.30;99.90;;;;;;4914935;29;20210;-72
2021/04/19 10:36:16;;;;;;;16.63;14.90;;;11.00;99.90;;;;;;4917135;29;20206;-72
2021/04/19 10:38:45;;;;;;;16.15;14.50;;;10.90;99.90;;;;;;4917198;29;20213;-72
2021/04/19 10:41:11;;;;;;;16.13;14.52;;;11.20;99.90;;;;;;4919101;29;20657;-72
2021/04/19 10:43:38;;;;;;;16.55;14.82;;;11.50;99.90;;;;;;4908943;29;20242;-72
2021/04/19 10:46:24;;;;;;;18.13;16.23;;;11.80;99.90;;;;;;4918685;29;20206;-71
2021/04/19 10:48:54;;;;;;;17.60;15.48;;;11.60;99.90;;;;;;4918819;29;20241;-71
2021/04/19 10:51:23;;;;;;;16.20;14.50;;;11.60;99.90;;;;;;4918281;29;20298;-70
2021/04/19 10:53:50;;;;;;;17.73;15.88;;;11.80;99.90;;;;;;4914246;29;20281;-71
2021/04/19 10:56:21;;;;;;;17.40;15.53;;;11.90;99.90;;;;;;4918027;29;20207;-71
2021/04/19 10:58:49;;;;;;;17.25;15.50;;;12.00;99.90;;;;;;4919882;29;20479;-71
2021/04/19 11:01:21;;;;;;;16.95;14.98;;;12.20;99.90;;;;;;4919456;29;20242;-71
2021/04/19 11:03:48;;;;;;;16.50;14.90;;;12.30;99.90;;;;;;4922309;29;20290;-72
2021/04/19 11:06:16;;;;;;;17.17;15.47;;;12.40;99.90;;;;;;4921735;29;20485;-72
2021/04/19 11:08:51;;;;;;;17.83;16.00;;;12.40;99.90;;;;;;4924192;29;20529;-71
2021/04/19 11:11:29;;;;;;;16.50;14.80;;;12.50;99.90;;;;;;4919352;29;20486;-72
2021/04/19 11:14:10;;;;;;;16.83;15.03;;;12.70;99.90;;;;;;4930019;29;20463;-72
2021/04/19 11:16:36;;;;;;;15.10;13.70;;;12.80;99.90;;;;;;4931263;29;20550;-73
2021/04/19 11:19:03;;;;;;;16.00;14.40;;;12.80;99.90;;;;;;4933926;29;20535;-72
2021/04/19 11:21:31;;;;;;;17.20;15.40;;;12.90;99.90;;;;;;4933940;29;20514;-72
2021/04/19 11:24:10;;;;;;;15.23;13.63;;;13.00;99.90;;;;;;4931345;29;20474;-72
2021/04/19 11:26:36;;;;;;;15.70;14.20;;;13.10;99.90;;;;;;4933194;29;20455;-72
2021/04/19 11:29:03;;;;;;;16.70;15.10;;;13.20;99.90;;;;;;4921007;29;20490;-73
2021/04/19 11:31:40;;;;;;;17.83;15.93;;;13.30;99.90;;;;;;4916174;29;20489;-72
2021/04/19 11:34:11;;;;;;;16.50;14.90;;;13.40;99.90;;;;;;4911731;29;20458;-73
2021/04/19 11:36:40;;;;;;;16.90;15.20;;;13.30;99.90;;;;;;4916432;29;20474;-72
2021/04/19 11:39:18;;;;;;;16.87;15.20;;;13.30;99.90;;;;;;4903587;29;20471;-72
2021/04/19 11:41:45;;;;;;;16.07;13.57;;;13.30;99.90;;;;;;4900660;29;20498;-73
2021/04/19 11:44:11;;;;;;;17.10;15.33;;;13.40;99.90;;;;;;4916198;29;21066;-72
2021/04/19 11:46:43;;;;;;;16.33;14.73;;;13.10;99.90;;;;;;4916598;29;20474;-72
2021/04/19 11:49:14;;;;;;;17.53;15.70;;;12.90;99.90;;;;;;4916836;29;20828;-72
2021/04/19 11:51:41;;;;;;;20.60;17.20;;;13.00;99.90;;;;;;4898023;29;20503;-70
2021/04/19 11:54:07;;;;;;;16.13;14.57;;;13.00;99.90;;;;;;4898825;29;20470;-70
2021/04/19 11:56:35;;;;;;;16.88;15.27;;;13.00;99.90;;;;;;4917501;29;20478;-71
2021/04/19 11:59:02;;;;;;;18.55;15.80;;;13.10;99.90;;;;;;4917952;29;20237;-69
2021/04/19 12:01:28;;;;;;;20.00;17.33;;;13.10;99.90;;;;;;4916907;29;20245;-70
2021/04/19 12:03:55;;;;;;;18.05;16.15;;;13.20;99.90;;;;;;4917757;29;20847;-70
2021/04/19 12:06:23;;;;;;;21.40;18.63;;;13.20;99.90;;;;;;4913141;29;20247;-70
2021/04/19 12:08:50;;;;;;;18.52;16.55;;;13.20;99.90;;;;;;4917743;29;20237;-69
2021/04/19 12:11:18;;;;;;;19.48;16.85;;;13.20;99.90;;;;;;4915990;29;20703;-70
2021/04/19 12:13:46;;;;;;;17.53;15.60;;;13.20;99.90;;;;;;4917205;29;20214;-70
2021/04/19 12:16:12;;;;;;;16.27;14.57;;;13.40;99.90;;;;;;4914480;29;20546;-69
2021/04/19 12:18:38;;;;;;;17.23;14.93;;;13.40;99.90;;;;;;4917115;29;20207;-71
2021/04/19 12:21:06;;;;;;;17.53;15.60;;;13.40;99.90;;;;;;4916182;29;20230;-71
2021/04/19 12:23:32;;;;;;;17.93;16.03;;;13.50;99.90;;;;;;4918237;29;20546;-71
2021/04/19 12:25:59;;;;;;;16.03;14.43;;;13.40;99.90;;;;;;4917744;29;20882;-71
2021/04/19 12:28:26;;;;;;;17.47;15.77;;;13.40;99.90;;;;;;4917567;29;20541;-70
2021/04/19 12:30:54;;;;;;;16.23;14.60;;;13.50;99.90;;;;;;4917327;29;20522;-71
2021/04/19 12:33:21;;;;;;;17.73;14.83;;;13.60;99.90;;;;;;4916956;29;20498;-70
2021/04/19 12:35:47;;;;;;;16.90;15.20;;;13.70;99.90;;;;;;4916451;29;20458;-71
2021/04/19 12:38:14;;;;;;;16.00;14.40;;;13.80;99.90;;;;;;4917402;29;20466;-71
2021/04/19 12:40:42;;;;;;;17.93;16.07;;;13.80;99.90;;;;;;4918309;29;20486;-70
2021/04/19 12:43:09;;;;;;;16.30;14.70;;;13.80;99.90;;;;;;4900902;29;20574;-70
2021/04/19 12:45:36;;;;;;;15.37;13.77;;;13.90;99.90;;;;;;4918443;29;20473;-71
2021/04/19 12:48:04;;;;;;;16.30;14.70;;;14.00;99.90;;;;;;4920664;29;20466;-70
2021/04/19 12:50:31;;;;;;;15.83;14.20;;;14.20;99.90;;;;;;4921558;29;20486;-70
2021/04/19 12:52:58;;;;;;;16.03;14.33;;;14.10;99.90;;;;;;4929041;29;20454;-70
2021/04/19 12:55:26;;;;;;;15.77;14.20;;;14.20;99.90;;;;;;4917836;29;20536;-71
2021/04/19 12:57:52;;;;;;;16.50;13.10;;;14.20;99.90;;;;;;4918733;29;20612;-70
2021/04/19 13:00:18;;;;;;;14.80;13.33;;;14.20;99.90;;;;;;4916511;29;20467;-70
2021/04/19 13:02:45;;;;;;;13.87;12.67;;;14.20;99.90;;;;;;4915825;29;21014;-70
2021/04/19 13:05:13;;;;;;;12.73;11.47;;;14.20;99.90;;;;;;4916569;29;20924;-70
2021/04/19 13:07:39;;;;;;;11.80;10.70;;;14.20;99.90;;;;;;4917380;29;20542;-70
2021/04/19 13:10:06;;;;;;;11.47;10.37;;;14.40;99.90;;;;;;4916661;29;20481;-70
2021/04/19 13:12:32;;;;;;;11.33;10.33;;;14.60;99.90;;;;;;4915745;29;20463;-71
2021/04/19 13:14:59;;;;;;;11.20;10.20;;;14.80;99.90;;;;;;4915986;29;20474;-69
2021/04/19 13:17:29;;;;;;;10.93;9.93;;;14.70;99.90;;;;;;4916320;29;20466;-70
2021/04/19 13:19:56;;;;;;;11.00;10.10;;;14.60;99.90;;;;;;4917153;29;20526;-70
2021/04/19 13:22:23;;;;;;;10.17;9.30;;;14.70;99.90;;;;;;4917839;29;21218;-70
2021/04/19 13:24:50;;;;;;;11.00;10.10;;;14.80;99.90;;;;;;4918086;29;20905;-71
2021/04/19 13:27:16;;;;;;;9.53;8.73;;;14.90;99.90;;;;;;4918261;29;20470;-70
2021/04/19 13:29:42;;;;;;;10.93;9.83;;;15.00;99.90;;;;;;4917658;29;20466;-70
2021/04/19 13:32:09;;;;;;;11.07;10.00;;;15.00;99.90;;;;;;4917636;29;20498;-71
2021/04/19 13:34:35;;;;;;;10.03;9.13;;;15.10;99.90;;;;;;4917545;29;20477;-71
2021/04/19 13:37:03;;;;;;;10.13;9.30;;;15.20;99.90;;;;;;4916831;29;20553;-71
2021/04/19 13:39:31;;;;;;;11.20;10.10;;;15.20;99.90;;;;;;4917330;29;20470;-71
2021/04/19 13:41:57;;;;;;;10.10;9.20;;;15.20;99.90;;;;;;4917166;29;20494;-71
2021/04/19 13:44:24;;;;;;;11.90;10.67;;;15.30;99.90;;;;;;4915703;29;20486;-71
2021/04/19 13:46:50;;;;;;;9.13;8.33;;;15.30;99.90;;;;;;4915365;29;20490;-71
2021/04/19 13:49:17;;;;;;;9.10;8.20;;;15.30;99.90;;;;;;4916293;29;20470;-72
2021/04/19 13:51:43;;;;;;;10.10;9.20;;;15.30;99.90;;;;;;4915601;29;20493;-70
2021/04/19 13:54:10;;;;;;;12.97;11.70;;;15.30;99.90;;;;;;4914890;29;20470;-72
2021/04/19 13:56:37;;;;;;;11.70;10.60;;;15.30;99.90;;;;;;4914476;29;20582;-73
2021/04/19 13:59:03;;;;;;;12.37;11.17;;;15.40;99.90;;;;;;4915522;29;20530;-70
2021/04/19 14:01:31;;;;;;;12.63;11.03;;;15.40;99.90;;;;;;4918686;29;20490;-71
2021/04/19 14:03:57;;;;;;;13.27;12.00;;;15.50;99.90;;;;;;4918102;29;20828;-71
2021/04/19 14:06:24;;;;;;;12.07;10.83;;;15.60;99.90;;;;;;4917976;29;20538;-70
2021/04/19 14:08:50;;;;;;;11.77;10.57;;;15.60;99.90;;;;;;4918018;29;20466;-70
2021/04/19 14:11:16;;;;;;;13.10;12.00;;;15.60;99.90;;;;;;4918306;29;20489;-70
2021/04/19 14:13:43;;;;;;;12.33;11.23;;;15.60;99.90;;;;;;4918651;29;20459;-71
2021/04/19 14:16:09;;;;;;;14.27;12.97;;;15.60;99.90;;;;;;4918857;29;20731;-72
2021/04/19 14:18:37;;;;;;;12.93;11.73;;;15.70;99.90;;;;;;4918929;29;20479;-70
2021/04/19 14:21:04;;;;;;;14.10;12.90;;;15.90;99.90;;;;;;4918316;29;20486;-70
2021/04/19 14:23:31;;;;;;;13.20;11.90;;;16.00;99.90;;;;;;4918877;29;20497;-70
2021/04/19 14:25:57;;;;;;;14.57;13.37;;;15.90;99.90;;;;;;4918648;29;20478;-71
2021/04/19 14:28:23;;;;;;;12.70;11.50;;;15.80;99.90;;;;;;4918415;29;20814;-71
2021/04/19 14:30:50;;;;;;;13.27;12.17;;;15.80;99.90;;;;;;4911720;29;20482;-71
2021/04/19 14:33:18;;;;;;;12.70;11.60;;;15.80;99.90;;;;;;4918658;29;20498;-71
2021/04/19 14:35:44;;;;;;;13.07;11.77;;;15.90;99.90;;;;;;4908975;29;20483;-71
2021/04/19 14:38:10;;;;;;;13.73;12.47;;;15.80;99.90;;;;;;4903411;29;20474;-71
2021/04/19 14:40:37;;;;;;;12.47;11.37;;;15.80;99.90;;;;;;4917520;29;20808;-71
2021/04/19 14:43:03;;;;;;;12.47;11.37;;;15.80;99.90;;;;;;4917825;29;20849;-69
2021/04/19 14:45:30;;;;;;;12.43;11.10;;;15.80;99.90;;;;;;4912739;29;20470;-70
2021/04/19 14:47:58;;;;;;;12.73;11.53;;;15.80;99.90;;;;;;4916934;29;20822;-70
2021/04/19 14:50:24;;;;;;;12.30;11.27;;;15.90;99.90;;;;;;4917450;29;20466;-71
2021/04/19 14:52:50;;;;;;;13.67;12.47;;;15.90;99.90;;;;;;4917397;29;20497;-70
2021/04/19 14:55:17;;;;;;;13.00;11.97;;;15.90;99.90;;;;;;4917156;29;20978;-70
2021/04/19 14:57:43;;;;;;;13.13;12.13;;;15.90;99.90;;;;;;4917793;29;20466;-70
2021/04/19 15:00:11;;;;;;;12.40;11.30;;;15.90;99.90;;;;;;4917659;29;20994;-70
2021/04/19 15:02:38;;;;;;;11.90;10.90;;;15.80;99.90;;;;;;4917288;29;20514;-70
2021/04/19 15:05:06;;;;;;;12.23;11.00;;;15.70;99.90;;;;;;4900451;29;20571;-70
2021/04/19 15:07:32;;;;;;;13.90;10.83;;;15.80;99.90;;;;;;4916613;29;20466;-71
2021/04/19 15:09:58;;;;;;;12.23;11.07;;;15.90;99.90;;;;;;4917101;29;20518;-70
2021/04/19 15:12:25;;;;;;;11.80;10.70;;;15.90;99.90;;;;;;4917600;29;20510;-70
2021/04/19 15:14:51;;;;;;;11.53;10.53;;;16.00;99.90;;;;;;4916986;29;20466;-70
2021/04/19 15:17:17;;;;;;;12.37;11.17;;;16.00;99.90;;;;;;4917371;29;20840;-70
2021/04/19 15:19:44;;;;;;;11.90;10.90;;;16.00;99.90;;;;;;4917328;29;20881;-71
2021/04/19 15:22:11;;;;;;;10.43;9.73;;;16.10;99.90;;;;;;4916316;29;20490;-70
2021/04/19 15:24:37;;;;;;;11.93;10.70;;;16.10;99.90;;;;;;4907711;29;20489;-71
2021/04/19 15:27:04;;;;;;;12.30;11.10;;;16.10;99.90;;;;;;4917417;29;20573;-70
2021/04/19 15:29:32;;;;;;;12.40;11.27;;;16.10;99.90;;;;;;4917532;29;20474;-71
2021/04/19 15:31:58;;;;;;;11.03;10.03;;;16.20;99.90;;;;;;4917401;29;22281;-70
2021/04/19 15:34:25;;;;;;;15.20;10.43;;;16.20;99.90;;;;;;4917670;29;20463;-70
2021/04/19 15:36:51;;;;;;;11.40;10.50;;;16.20;99.90;;;;;;4915548;29;20475;-70
2021/04/19 15:39:18;;;;;;;11.33;10.33;;;16.20;99.90;;;;;;4916312;29;20470;-70
2021/04/19 15:41:45;;;;;;;11.57;10.53;;;16.20;99.90;;;;;;4916349;29;20485;-73
2021/04/19 15:44:11;;;;;;;11.40;10.40;;;16.20;99.90;;;;;;4915065;29;20586;-72
2021/04/19 15:46:37;;;;;;;12.03;11.13;;;16.30;99.90;;;;;;4916628;29;20474;-74
2021/04/19 15:49:04;;;;;;;11.27;10.30;;;16.30;99.90;;;;;;4917817;29;20462;-73
2021/04/19 15:51:31;;;;;;;8.47;7.73;;;16.30;99.90;;;;;;4917450;29;20513;-74
2021/04/19 15:53:58;;;;;;;7.97;7.33;;;16.30;99.90;;;;;;4914924;29;20474;-74
2021/04/19 15:56:25;;;;;;;8.33;7.73;;;16.30;99.90;;;;;;4917632;29;20482;-73
2021/04/19 15:58:51;;;;;;;7.30;6.80;;;16.30;99.90;;;;;;4907398;29;20546;-72
2021/04/19 16:01:17;;;;;;;7.73;7.13;;;16.20;99.90;;;;;;4915421;29;20502;-73
2021/04/19 16:03:44;;;;;;;6.90;6.40;;;16.10;99.90;;;;;;4916338;29;20905;-73
2021/04/19 16:06:10;;;;;;;6.80;6.30;;;16.20;99.90;;;;;;4916512;29;20525;-72
2021/04/19 16:08:36;;;;;;;7.40;6.67;;;16.20;99.90;;;;;;4916227;29;20478;-71
2021/04/19 16:11:02;;;;;;;6.10;5.70;;;16.30;99.90;;;;;;4915395;29;20486;-71
2021/04/19 16:13:29;;;;;;;6.70;6.00;;;16.30;99.90;;;;;;4915357;29;20838;-71
2021/04/19 16:15:55;;;;;;;6.90;6.30;;;16.20;99.90;;;;;;4915206;29;20867;-71
2021/04/19 16:18:22;;;;;;;5.80;5.23;;;16.20;99.90;;;;;;4915968;29;20463;-71
2021/04/19 16:20:48;;;;;;;6.03;5.63;;;16.10;99.90;;;;;;4915308;29;20522;-71
2021/04/19 16:23:15;;;;;;;5.10;4.70;;;16.10;99.90;;;;;;4914750;29;20515;-71
2021/04/19 16:25:41;;;;;;;4.73;4.43;;;16.00;99.90;;;;;;4915217;29;20477;-71
2021/04/19 16:28:07;;;;;;;4.53;4.13;;;16.00;99.90;;;;;;4915603;29;20558;-71
2021/04/19 16:30:34;;;;;;;4.90;4.50;;;15.90;99.90;;;;;;4915972;29;20491;-71
2021/04/19 16:33:01;;;;;;;4.33;4.03;;;15.90;99.90;;;;;;4915954;29;20550;-71
2021/04/19 16:35:29;;;;;;;5.60;5.10;;;15.90;99.90;;;;;;4915518;29;20529;-71
2021/04/19 16:37:55;;;;;;;5.23;3.30;;;15.80;99.90;;;;;;4915675;29;20849;-71
2021/04/19 16:40:21;;;;;;;4.00;3.60;;;15.70;99.90;;;;;;4920824;29;20836;-71